LICB/CIY METAR and TAF weather

Enter ICAO airport designator
Station Type Date Time Source
LICB METAR 2019/04/20 17:50 UTC NOAA

LICB 201750Z 10013KT 060V140 CAVOK 15/04 Q1020


Station Type Date Time Source
LICB Decoded METAR 2019/04/20 17:50 UTC NOAA

Comiso As Usaf , Italy (LICB) 36-56N 014-36E
Apr 20, 2019 - 01:50 PM EDT / 2019.04.20 1750 UTC
Wind: from the E (100 degrees) at 15 MPH (13 KT) (direction variable):0
Visibility: greater than 7 mile(s):0
Temperature: 59 F (15 C)
Dew Point: 39 F (4 C)
Relative Humidity: 47%
Pressure (altimeter): 30.12 in. Hg (1020 hPa)
ob: LICB 201750Z 10013KT 060V140 CAVOK 15/04 Q1020
cycle: 18

Station Type Date Time Source
LICB TAF UTC NOAA

Error!

Example: see airport list